createdAt,value
2017-12-21T00:00:01.101Z,6.20
2017-12-21T00:02:29.392Z,6.60
2017-12-21T00:04:57.892Z,6.50
2017-12-21T00:07:26.161Z,6.40
2017-12-21T00:09:54.419Z,6.50
2017-12-21T00:12:22.694Z,6.40
2017-12-21T00:14:51.101Z,6.60
2017-12-21T00:17:19.374Z,6.70
2017-12-21T00:19:47.640Z,6.60
2017-12-21T00:22:15.899Z,6.50
2017-12-21T00:24:44.181Z,6.50
2017-12-21T00:27:12.483Z,6.50
2017-12-21T00:29:40.748Z,6.70
2017-12-21T00:32:09.042Z,6.90
2017-12-21T00:34:37.291Z,6.90
2017-12-21T00:37:05.629Z,6.70
2017-12-21T00:39:34.075Z,6.60
2017-12-21T00:42:02.454Z,6.70
2017-12-21T00:44:30.695Z,6.80
2017-12-21T00:46:58.976Z,6.70
2017-12-21T00:49:27.253Z,6.70
2017-12-21T00:51:55.560Z,6.70
2017-12-21T00:54:23.833Z,6.80
2017-12-21T00:56:52.100Z,7.00
2017-12-21T00:59:20.404Z,6.80
2017-12-21T01:01:48.685Z,6.70
2017-12-21T01:04:19.403Z,6.80
2017-12-21T01:06:47.785Z,6.70
2017-12-21T01:09:16.033Z,6.90
2017-12-21T01:11:44.329Z,6.90
2017-12-21T01:14:12.596Z,6.90
2017-12-21T01:16:40.844Z,6.90
2017-12-21T01:19:09.166Z,7.00
2017-12-21T01:21:37.417Z,7.00
2017-12-21T01:24:05.727Z,7.10
2017-12-21T01:26:33.998Z,7.00
2017-12-21T01:29:02.275Z,6.80
2017-12-21T01:31:30.574Z,6.90
2017-12-21T01:33:58.929Z,6.90
2017-12-21T01:36:27.180Z,6.90
2017-12-21T01:38:55.446Z,7.00
2017-12-21T01:41:23.708Z,6.90
2017-12-21T01:43:52.852Z,7.00
2017-12-21T01:46:21.108Z,7.00
2017-12-21T01:48:49.416Z,7.00
2017-12-21T01:51:17.796Z,6.80
2017-12-21T01:53:46.069Z,6.70
2017-12-21T01:56:14.440Z,6.70
2017-12-21T01:58:42.727Z,6.80
2017-12-21T02:01:11.017Z,6.80
2017-12-21T02:03:39.264Z,6.80
2017-12-21T02:06:07.552Z,6.80
2017-12-21T02:08:35.835Z,6.80
2017-12-21T02:11:04.185Z,6.80
2017-12-21T02:13:32.479Z,6.80
2017-12-21T02:16:00.743Z,6.90
2017-12-21T02:18:28.988Z,6.90
2017-12-21T02:20:58.019Z,6.90
2017-12-21T02:23:26.263Z,6.90
2017-12-21T02:25:54.537Z,6.90
2017-12-21T02:28:23.552Z,7.00
2017-12-21T02:30:51.914Z,7.00
2017-12-21T02:33:20.962Z,6.90
2017-12-21T02:35:49.212Z,6.90
2017-12-21T02:38:17.976Z,6.90
2017-12-21T02:40:46.405Z,6.90
2017-12-21T02:43:14.682Z,6.90
2017-12-21T02:45:42.944Z,6.90
2017-12-21T02:48:11.212Z,7.00
2017-12-21T02:50:39.485Z,7.10
2017-12-21T02:53:07.781Z,7.10
2017-12-21T02:55:36.032Z,7.10
2017-12-21T02:58:04.310Z,7.30
2017-12-21T03:00:32.586Z,7.20
2017-12-21T03:03:01.636Z,7.20
2017-12-21T03:05:29.863Z,7.20
2017-12-21T03:07:58.116Z,7.20
2017-12-21T03:10:27.143Z,7.10
2017-12-21T03:12:55.439Z,7.10
2017-12-21T03:15:23.708Z,7.10
2017-12-21T03:17:51.964Z,7.10
2017-12-21T03:20:20.270Z,6.90
2017-12-21T03:22:48.532Z,7.00
2017-12-21T03:25:16.783Z,7.00
2017-12-21T03:27:45.064Z,7.00
2017-12-21T03:30:13.314Z,7.10
2017-12-21T03:32:42.330Z,7.00
2017-12-21T03:35:10.595Z,7.00
2017-12-21T03:37:39.616Z,7.10
2017-12-21T03:40:07.893Z,7.10
2017-12-21T03:42:36.139Z,7.10
2017-12-21T03:45:04.552Z,7.10
2017-12-21T03:47:32.854Z,7.00
2017-12-21T03:50:01.141Z,7.00
2017-12-21T03:52:29.510Z,7.10
2017-12-21T03:54:57.790Z,7.10
2017-12-21T03:57:26.120Z,7.10
2017-12-21T03:59:55.264Z,7.10
2017-12-21T04:02:23.500Z,7.10
2017-12-21T04:04:51.777Z,7.10
2017-12-21T04:07:20.091Z,7.10
2017-12-21T04:09:48.339Z,7.10
2017-12-21T04:12:16.615Z,7.10
2017-12-21T04:14:44.873Z,7.10
2017-12-21T04:17:14.022Z,7.20
2017-12-21T04:19:42.298Z,7.20
2017-12-21T04:22:10.543Z,7.20
2017-12-21T04:24:38.956Z,7.10
2017-12-21T04:27:07.187Z,7.10
2017-12-21T04:29:35.468Z,7.20
2017-12-21T04:32:03.872Z,7.30
2017-12-21T04:34:32.108Z,7.30
2017-12-21T04:37:01.142Z,7.40
2017-12-21T04:39:29.390Z,7.40
2017-12-21T04:41:57.665Z,7.30
2017-12-21T04:44:26.676Z,7.00
2017-12-21T04:46:54.930Z,7.00
2017-12-21T04:49:24.052Z,7.10
2017-12-21T04:51:52.312Z,7.10
2017-12-21T04:54:20.609Z,7.10
2017-12-21T04:56:49.010Z,7.00
2017-12-21T04:59:17.241Z,7.00
2017-12-21T05:01:46.272Z,7.00
2017-12-21T05:04:14.536Z,7.00
2017-12-21T05:06:42.810Z,6.90
2017-12-21T05:09:11.064Z,6.90
2017-12-21T05:11:40.081Z,6.80
2017-12-21T05:14:08.535Z,6.80
2017-12-21T05:16:37.585Z,6.90
2017-12-21T05:19:05.872Z,6.80
2017-12-21T05:21:34.115Z,6.80
2017-12-21T05:24:02.362Z,6.90
2017-12-21T05:26:31.395Z,6.90
2017-12-21T05:28:59.669Z,6.90
2017-12-21T05:31:27.939Z,6.90
2017-12-21T05:33:56.194Z,6.90
2017-12-21T05:36:25.236Z,6.90
2017-12-21T05:38:53.516Z,6.90
2017-12-21T05:41:21.764Z,7.00
2017-12-21T05:43:50.051Z,7.00
2017-12-21T05:46:18.350Z,6.90
2017-12-21T05:48:46.633Z,6.90
2017-12-21T05:51:14.899Z,6.90
2017-12-21T05:53:43.152Z,6.90
2017-12-21T05:56:11.425Z,7.00
2017-12-21T05:58:39.688Z,7.00
2017-12-21T06:01:07.965Z,6.90
2017-12-21T06:03:36.215Z,6.90
2017-12-21T06:06:05.481Z,7.00
2017-12-21T06:08:33.770Z,6.90
2017-12-21T06:11:02.137Z,7.00
2017-12-21T06:13:30.405Z,7.00
2017-12-21T06:15:58.764Z,7.00
2017-12-21T06:18:27.015Z,6.90
2017-12-21T06:20:56.161Z,6.90
2017-12-21T06:23:24.473Z,6.90
2017-12-21T06:25:53.541Z,6.90
2017-12-21T06:28:21.833Z,6.90
2017-12-21T06:30:50.856Z,6.90
2017-12-21T06:33:19.909Z,6.90
2017-12-21T06:35:48.141Z,6.90
2017-12-21T06:38:16.417Z,6.90
2017-12-21T06:40:44.660Z,6.90
2017-12-21T06:43:12.945Z,7.00
2017-12-21T06:45:41.213Z,7.00
2017-12-21T06:48:09.570Z,7.00
2017-12-21T06:50:37.838Z,7.00
2017-12-21T06:53:06.123Z,7.00
2017-12-21T06:55:34.605Z,7.00
2017-12-21T06:58:02.877Z,7.00
2017-12-21T07:00:31.131Z,7.10
2017-12-21T07:02:59.398Z,7.00
2017-12-21T07:05:27.668Z,7.00
2017-12-21T07:07:55.925Z,7.10
2017-12-21T07:10:25.088Z,7.10
2017-12-21T07:12:53.329Z,7.10
2017-12-21T07:15:21.907Z,7.10
2017-12-21T07:17:50.150Z,7.20
2017-12-21T07:20:18.421Z,7.20
2017-12-21T07:22:47.472Z,7.20
2017-12-21T07:25:15.737Z,7.20
2017-12-21T07:27:44.054Z,7.20
2017-12-21T07:30:12.328Z,7.20
2017-12-21T07:32:40.616Z,7.20
2017-12-21T07:35:09.717Z,7.20
2017-12-21T07:37:38.028Z,7.20
2017-12-21T07:40:07.178Z,7.10
2017-12-21T07:42:35.428Z,7.10
2017-12-21T07:45:03.721Z,7.20
2017-12-21T07:47:31.996Z,7.20
2017-12-21T07:50:00.251Z,7.20
2017-12-21T07:52:28.563Z,7.20
2017-12-21T07:54:56.816Z,7.20
2017-12-21T07:57:25.068Z,7.20
2017-12-21T07:59:53.378Z,7.20
2017-12-21T08:02:21.627Z,7.20
2017-12-21T08:04:49.944Z,7.30
2017-12-21T08:07:18.205Z,7.30
2017-12-21T08:09:46.501Z,7.30
2017-12-21T08:12:14.772Z,7.30
2017-12-21T08:14:43.016Z,7.30
2017-12-21T08:17:11.309Z,7.30
2017-12-21T08:19:39.556Z,7.30
2017-12-21T08:22:07.989Z,7.40
2017-12-21T08:24:36.239Z,7.50
2017-12-21T08:27:04.491Z,7.50
2017-12-21T08:29:32.784Z,7.40
2017-12-21T08:32:01.083Z,7.60
2017-12-21T08:34:29.343Z,7.50
2017-12-21T08:36:57.628Z,7.40
2017-12-21T08:39:25.886Z,7.40
2017-12-21T08:41:54.224Z,7.40
2017-12-21T08:44:22.503Z,7.40
2017-12-21T08:46:52.272Z,7.40
2017-12-21T08:49:20.573Z,7.40
2017-12-21T08:51:48.829Z,7.40
2017-12-21T08:54:17.227Z,7.50
2017-12-21T08:56:45.467Z,7.50
2017-12-21T08:59:13.781Z,7.50
2017-12-21T09:01:42.061Z,7.50
2017-12-21T09:04:10.311Z,7.50
2017-12-21T09:06:38.607Z,7.50
2017-12-21T09:09:06.844Z,7.60
2017-12-21T09:11:35.165Z,7.60
2017-12-21T09:14:03.542Z,7.60
2017-12-21T09:16:31.811Z,7.60
2017-12-21T09:19:00.087Z,7.60
2017-12-21T09:21:28.378Z,7.60
2017-12-21T09:23:56.647Z,7.80
2017-12-21T09:26:25.024Z,7.90
2017-12-21T09:28:53.284Z,8.00
2017-12-21T09:31:21.560Z,7.90
2017-12-21T09:33:49.812Z,7.90
2017-12-21T09:36:18.077Z,7.90
2017-12-21T09:38:47.112Z,7.90
2017-12-21T09:41:15.394Z,7.90
2017-12-21T09:43:43.688Z,7.90
2017-12-21T09:46:12.004Z,8.00
2017-12-21T09:48:41.088Z,8.00
2017-12-21T09:51:10.993Z,8.10
2017-12-21T09:53:39.255Z,8.10
2017-12-21T09:56:07.497Z,8.20
2017-12-21T09:58:35.776Z,8.10
2017-12-21T10:01:04.032Z,8.10
2017-12-21T10:03:32.386Z,8.10
2017-12-21T10:06:00.757Z,8.20
2017-12-21T10:08:29.046Z,8.30
2017-12-21T10:10:57.305Z,8.20
2017-12-21T10:13:25.560Z,8.20
2017-12-21T10:15:53.954Z,8.20
2017-12-21T10:18:22.219Z,8.30
2017-12-21T10:20:50.497Z,8.30
2017-12-21T10:23:18.791Z,8.30
2017-12-21T10:25:47.064Z,8.30
2017-12-21T10:28:15.337Z,8.40
2017-12-21T10:30:43.589Z,8.40
2017-12-21T10:33:11.880Z,8.40
2017-12-21T10:35:40.240Z,8.30
2017-12-21T10:38:08.488Z,8.30
2017-12-21T10:40:37.545Z,8.30
2017-12-21T10:43:05.793Z,8.30
2017-12-21T10:45:34.094Z,8.30
2017-12-21T10:48:02.417Z,8.30
2017-12-21T10:50:30.649Z,8.30
2017-12-21T10:52:59.052Z,8.20
2017-12-21T10:55:27.301Z,8.30
2017-12-21T10:57:55.564Z,8.20
2017-12-21T11:00:23.849Z,8.30
2017-12-21T11:02:52.096Z,8.40
2017-12-21T11:05:20.391Z,8.40
2017-12-21T11:07:48.660Z,8.40
2017-12-21T11:10:16.916Z,8.40
2017-12-21T11:12:45.196Z,8.30
2017-12-21T11:15:13.463Z,8.40
2017-12-21T11:17:42.513Z,8.30
2017-12-21T11:20:10.755Z,8.30
2017-12-21T11:22:39.064Z,8.30
2017-12-21T11:25:07.341Z,8.40
2017-12-21T11:27:35.597Z,8.40
2017-12-21T11:30:03.921Z,8.40
2017-12-21T11:32:32.171Z,8.50
2017-12-21T11:35:00.607Z,8.40
2017-12-21T11:37:29.400Z,8.40
2017-12-21T11:39:58.412Z,8.30
2017-12-21T11:42:26.696Z,8.30
2017-12-21T11:44:54.960Z,8.30
2017-12-21T11:47:23.208Z,8.20
2017-12-21T11:49:52.254Z,8.00
2017-12-21T11:52:20.517Z,8.00
2017-12-21T11:54:48.799Z,8.00
2017-12-21T11:57:17.098Z,8.00
2017-12-21T11:59:45.384Z,8.10
2017-12-21T12:02:13.672Z,8.00
2017-12-21T12:04:42.034Z,8.00
2017-12-21T12:07:10.319Z,8.00
2017-12-21T12:09:38.556Z,8.10
2017-12-21T12:12:06.859Z,8.00
2017-12-21T12:14:35.121Z,8.00
2017-12-21T12:17:03.418Z,8.00
2017-12-21T12:19:31.698Z,8.00
2017-12-21T12:21:59.988Z,8.10
2017-12-21T12:24:29.012Z,8.20
2017-12-21T12:26:58.162Z,8.10
2017-12-21T12:29:26.473Z,8.10
2017-12-21T12:31:55.538Z,8.00
2017-12-21T12:34:23.787Z,8.00
2017-12-21T12:36:52.082Z,8.00
2017-12-21T12:39:20.364Z,8.00
2017-12-21T12:41:48.644Z,7.90
2017-12-21T12:44:17.023Z,7.90
2017-12-21T12:46:45.279Z,7.90
2017-12-21T12:49:13.581Z,7.90
2017-12-21T12:51:41.851Z,7.90
2017-12-21T12:54:10.107Z,7.80
2017-12-21T12:56:38.395Z,7.90
2017-12-21T12:59:06.631Z,8.00
2017-12-21T13:01:35.684Z,8.00
2017-12-21T13:04:04.037Z,7.90
2017-12-21T13:06:32.281Z,8.00
2017-12-21T13:09:01.325Z,8.10
2017-12-21T13:11:29.579Z,8.10
2017-12-21T13:13:57.842Z,8.00
2017-12-21T13:16:26.288Z,8.00
2017-12-21T13:18:54.631Z,8.00
2017-12-21T13:21:22.897Z,8.00
2017-12-21T13:23:51.145Z,8.00
2017-12-21T13:26:20.156Z,8.00
2017-12-21T13:28:48.433Z,8.00
2017-12-21T13:31:16.695Z,8.00
2017-12-21T13:33:45.744Z,8.00
2017-12-21T13:36:13.991Z,8.00
2017-12-21T13:38:42.293Z,7.90
2017-12-21T13:41:10.680Z,7.90
2017-12-21T13:43:38.930Z,7.80
2017-12-21T13:46:07.205Z,7.70
2017-12-21T13:48:35.476Z,7.60
2017-12-21T13:51:03.746Z,7.60
2017-12-21T13:53:32.033Z,7.60
2017-12-21T13:56:00.288Z,7.60
2017-12-21T13:58:28.624Z,7.50
2017-12-21T14:00:57.690Z,7.60
2017-12-21T14:03:25.916Z,7.50
2017-12-21T14:05:54.965Z,7.60
2017-12-21T14:08:23.224Z,7.60
2017-12-21T14:10:51.511Z,7.60
2017-12-21T14:13:19.757Z,7.50
2017-12-21T14:15:48.771Z,7.40
2017-12-21T14:18:17.081Z,7.40
2017-12-21T14:20:45.333Z,7.40
2017-12-21T14:23:13.602Z,7.40
2017-12-21T14:25:41.863Z,7.40
2017-12-21T14:28:10.130Z,7.30
2017-12-21T14:30:38.400Z,7.20
2017-12-21T14:33:06.684Z,7.20
2017-12-21T14:35:35.069Z,7.30
2017-12-21T14:38:03.340Z,7.20
2017-12-21T14:40:31.596Z,7.30
2017-12-21T14:42:59.871Z,7.30
2017-12-21T14:45:28.120Z,7.30
2017-12-21T14:47:57.181Z,7.30
2017-12-21T14:50:25.436Z,7.30
2017-12-21T14:52:53.692Z,7.30
2017-12-21T14:55:22.072Z,7.30
2017-12-21T14:57:50.324Z,7.30
2017-12-21T15:00:20.184Z,7.30
2017-12-21T15:02:48.441Z,7.30
2017-12-21T15:05:16.709Z,7.40
2017-12-21T15:07:44.980Z,7.40
2017-12-21T15:10:13.299Z,7.30
2017-12-21T15:12:41.682Z,7.30
2017-12-21T15:15:09.928Z,7.30
2017-12-21T15:17:38.340Z,7.30
2017-12-21T15:20:06.595Z,7.20
2017-12-21T15:22:34.861Z,7.20
2017-12-21T15:25:03.157Z,7.20
2017-12-21T15:27:31.400Z,7.10
2017-12-21T15:29:59.657Z,7.10
2017-12-21T15:32:28.710Z,7.10
2017-12-21T15:34:56.993Z,7.10
2017-12-21T15:37:25.256Z,7.20
2017-12-21T15:39:53.511Z,7.20
2017-12-21T15:42:21.788Z,7.20
2017-12-21T15:44:50.924Z,7.20
2017-12-21T15:47:19.233Z,7.10
2017-12-21T15:49:47.527Z,7.10
2017-12-21T15:52:15.783Z,7.10
2017-12-21T15:54:44.847Z,7.00
2017-12-21T15:57:13.228Z,7.00
2017-12-21T15:59:41.498Z,7.10
2017-12-21T16:02:09.899Z,7.00
2017-12-21T16:04:38.726Z,7.00
2017-12-21T16:07:07.769Z,7.00
2017-12-21T16:09:36.036Z,7.00
2017-12-21T16:12:04.529Z,6.90
2017-12-21T16:14:32.793Z,6.90
2017-12-21T16:17:01.187Z,6.90
2017-12-21T16:19:29.429Z,6.90
2017-12-21T16:21:58.249Z,6.90
2017-12-21T16:24:26.509Z,6.90
2017-12-21T16:26:54.813Z,6.90
2017-12-21T16:29:23.073Z,6.90
2017-12-21T16:31:51.323Z,6.90
2017-12-21T16:34:20.016Z,7.00
2017-12-21T16:36:48.276Z,6.90
2017-12-21T16:39:16.551Z,6.90
2017-12-21T16:41:44.804Z,6.80
2017-12-21T16:44:13.822Z,6.80
2017-12-21T16:46:42.246Z,6.80
2017-12-21T16:49:10.498Z,6.80
2017-12-21T16:51:38.897Z,6.80
2017-12-21T16:54:07.174Z,6.80
2017-12-21T16:56:35.412Z,6.70
2017-12-21T16:59:03.840Z,6.70
2017-12-21T17:01:32.088Z,6.70
2017-12-21T17:04:00.388Z,6.70
2017-12-21T17:06:28.656Z,6.70
2017-12-21T17:08:56.912Z,6.70
2017-12-21T17:11:25.952Z,6.60
2017-12-21T17:13:54.348Z,6.60
2017-12-21T17:16:22.621Z,6.60
2017-12-21T17:18:50.913Z,6.60
2017-12-21T17:21:20.147Z,6.70
2017-12-21T17:23:48.474Z,6.90
2017-12-21T17:26:16.732Z,6.80
2017-12-21T17:28:45.012Z,6.80
2017-12-21T17:31:13.305Z,6.70
2017-12-21T17:33:41.564Z,6.80
2017-12-21T17:36:09.831Z,6.60
2017-12-21T17:38:38.084Z,6.60
2017-12-21T17:41:07.132Z,6.50
2017-12-21T17:43:35.466Z,6.40
2017-12-21T17:46:03.994Z,6.50
2017-12-21T17:48:32.476Z,6.50
2017-12-21T17:51:00.791Z,6.40
2017-12-21T17:53:29.132Z,6.40
2017-12-21T17:55:57.408Z,6.40
2017-12-21T17:58:25.653Z,6.40
2017-12-21T18:00:54.068Z,6.30
2017-12-21T18:03:22.349Z,6.30
2017-12-21T18:05:50.785Z,6.30
2017-12-21T18:08:19.115Z,6.30
2017-12-21T18:10:48.121Z,6.30
2017-12-21T18:13:17.191Z,6.40
2017-12-21T18:15:45.476Z,6.40
2017-12-21T18:18:13.851Z,6.40
2017-12-21T18:20:42.080Z,6.30
2017-12-21T18:23:10.386Z,6.30
2017-12-21T18:25:39.467Z,6.40
2017-12-21T18:28:07.711Z,6.40
2017-12-21T18:30:38.212Z,6.30
2017-12-21T18:33:06.487Z,6.30
2017-12-21T18:35:34.757Z,6.20
2017-12-21T18:38:03.060Z,6.20
2017-12-21T18:40:32.811Z,6.30
2017-12-21T18:43:01.224Z,6.30
2017-12-21T18:45:29.498Z,6.30
2017-12-21T18:47:57.759Z,6.30
2017-12-21T18:50:26.037Z,6.20
2017-12-21T18:52:54.292Z,6.20
2017-12-21T18:55:22.572Z,6.10
2017-12-21T18:57:50.824Z,6.20
2017-12-21T19:00:19.843Z,6.20
2017-12-21T19:02:48.119Z,6.20
2017-12-21T19:05:16.372Z,6.20
2017-12-21T19:07:44.647Z,6.20
2017-12-21T19:10:13.701Z,6.20
2017-12-21T19:12:41.952Z,6.20
2017-12-21T19:15:10.227Z,6.10
2017-12-21T19:17:38.504Z,6.10
2017-12-21T19:20:06.853Z,6.10
2017-12-21T19:22:35.873Z,6.00
2017-12-21T19:25:04.169Z,6.00
2017-12-21T19:27:32.466Z,6.00
2017-12-21T19:30:00.744Z,6.00
2017-12-21T19:32:29.044Z,5.90
2017-12-21T19:34:57.336Z,5.90
2017-12-21T19:37:26.397Z,5.90
2017-12-21T19:39:54.746Z,5.90
2017-12-21T19:42:23.049Z,5.90
2017-12-21T19:44:51.343Z,5.90
2017-12-21T19:47:19.598Z,5.90
2017-12-21T19:49:47.851Z,5.90
2017-12-21T19:52:16.162Z,5.90
2017-12-21T19:54:44.542Z,5.90
2017-12-21T19:57:12.911Z,5.90
2017-12-21T19:59:41.196Z,5.90
2017-12-21T20:02:09.457Z,5.90
2017-12-21T20:04:37.844Z,5.90
2017-12-21T20:07:06.096Z,5.90
2017-12-21T20:09:34.407Z,5.90
2017-12-21T20:12:02.698Z,5.80
2017-12-21T20:14:32.464Z,5.80
2017-12-21T20:17:00.875Z,5.70
2017-12-21T20:19:29.145Z,5.70
2017-12-21T20:21:57.447Z,5.70
2017-12-21T20:24:25.807Z,5.80
2017-12-21T20:26:54.084Z,5.80
2017-12-21T20:29:22.353Z,5.80
2017-12-21T20:31:50.608Z,5.80
2017-12-21T20:34:18.884Z,5.70
2017-12-21T20:36:47.172Z,5.70
2017-12-21T20:39:15.428Z,5.70
2017-12-21T20:41:44.320Z,5.70
2017-12-21T20:44:12.582Z,5.70
2017-12-21T20:46:41.635Z,5.70
2017-12-21T20:49:09.910Z,5.60
2017-12-21T20:51:38.182Z,5.70
2017-12-21T20:54:06.457Z,5.70
2017-12-21T20:56:34.716Z,5.70
2017-12-21T20:59:02.992Z,5.70
2017-12-21T21:01:31.266Z,5.60
2017-12-21T21:04:00.283Z,5.70
2017-12-21T21:06:28.582Z,5.60
2017-12-21T21:08:56.844Z,5.60
2017-12-21T21:11:25.246Z,5.60
2017-12-21T21:13:53.521Z,5.60
2017-12-21T21:16:21.804Z,5.60
2017-12-21T21:18:50.194Z,5.60
2017-12-21T21:21:18.465Z,5.60
2017-12-21T21:23:46.848Z,5.60
2017-12-21T21:26:15.123Z,5.60
2017-12-21T21:28:43.394Z,5.60
2017-12-21T21:31:11.685Z,5.70
2017-12-21T21:33:40.765Z,5.70
2017-12-21T21:36:09.054Z,5.60
2017-12-21T21:38:37.308Z,5.70
2017-12-21T21:41:05.569Z,5.70
2017-12-21T21:43:33.852Z,5.70
2017-12-21T21:46:02.159Z,5.80
2017-12-21T21:48:30.428Z,5.80
2017-12-21T21:50:58.688Z,5.70
2017-12-21T21:53:26.967Z,5.70
2017-12-21T21:55:55.267Z,5.70
2017-12-21T21:58:24.288Z,5.80
2017-12-21T22:00:53.346Z,5.70
2017-12-21T22:03:21.616Z,5.70
2017-12-21T22:05:49.878Z,5.70
2017-12-21T22:08:18.156Z,5.60
2017-12-21T22:10:46.420Z,5.60
2017-12-21T22:13:14.708Z,5.60
2017-12-21T22:15:42.971Z,5.60
2017-12-21T22:18:11.289Z,5.70
2017-12-21T22:20:39.667Z,5.70
2017-12-21T22:23:07.928Z,5.70
2017-12-21T22:25:36.237Z,5.70
2017-12-21T22:28:05.264Z,5.80
2017-12-21T22:30:33.596Z,5.70
2017-12-21T22:33:01.984Z,5.70
2017-12-21T22:35:31.013Z,5.80
2017-12-21T22:37:59.368Z,5.80
2017-12-21T22:40:27.620Z,5.90
2017-12-21T22:42:55.888Z,6.00
2017-12-21T22:45:24.190Z,6.00
2017-12-21T22:47:52.531Z,6.00
2017-12-21T22:50:20.815Z,6.00
2017-12-21T22:52:49.082Z,6.00
2017-12-21T22:55:17.387Z,6.10
2017-12-21T22:57:45.691Z,6.10
2017-12-21T23:00:24.789Z,6.10
2017-12-21T23:02:53.077Z,6.10
2017-12-21T23:05:21.344Z,6.20
2017-12-21T23:07:49.601Z,6.30
2017-12-21T23:10:17.886Z,6.30
2017-12-21T23:12:46.300Z,6.20
2017-12-21T23:15:14.598Z,6.30
2017-12-21T23:17:43.627Z,6.40
2017-12-21T23:20:11.896Z,6.40
2017-12-21T23:22:40.191Z,6.30
2017-12-21T23:25:08.477Z,6.20
2017-12-21T23:27:36.763Z,6.10
2017-12-21T23:30:05.142Z,6.00
2017-12-21T23:32:33.416Z,6.10
2017-12-21T23:35:01.812Z,6.10
2017-12-21T23:37:30.180Z,6.00
2017-12-21T23:39:58.461Z,5.90
2017-12-21T23:42:26.728Z,5.90
2017-12-21T23:44:55.220Z,5.90
2017-12-21T23:47:23.507Z,5.80
2017-12-21T23:49:53.267Z,5.90
2017-12-21T23:52:21.523Z,5.90
2017-12-21T23:54:50.680Z,6.10
2017-12-21T23:57:18.995Z,6.10
2017-12-21T23:59:48.072Z,5.90
